EHVL  Vlieland Heliport

Add Bookmark

Vlieland, The Netherlands

Status
Operational
Latitude Longitude
53° 17' 47" N 5° 5' 8" E
53.296665 5.085833
Local (DST + 2) UTC (GMT + 1)
Nov 23, 2014 10:28 Nov 23, 2014 09:28
Sunrise-Sunset Local UTC
Begin Civil Twilight 07:37 06:37
Sunrise 08:17 07:17
Sunset 04:34 15:34
End Civil Twilight 05:14 16:14

Current Weather

METAR Observed MVFR
EHVL 230855Z AUTO 16015KT 5000 BR FEW130 09/09 Q1015 WHT Sun, Nov 23, 2014 @ 08:55 UTC
(33 Minutes ago)
Marginal Visual Flight Rules
Wind Visibility Clouds Conditions
160° at 15 knots (28 kph) 5000 meters
  • Few at 13,000' AGL
  • Mist
Temperatures Readings Precipitation
Current Temp 9°C (48°F)
Dewpoint 9°C (48°F)
Humidity 100%
Altimeter 29.97"Hg
Sea Level Pressure 1015mb
Field Elevation 16.4'
None Recorded

Additional weather within a 92.6km radius of EHVL

Map ICAO Location
EHMG 36.5km N (347°)
EHLW 45.6km E (099°)
EHKD 46.1km S (206°)
EHMA 61.5km E (068°)
EHQE 75.4km W (236°)

24 Hour Weather History

Loading
-

24 Hour Weather Graphs

Loading
-

CheckWX.com is intended as a tool to help pilots better visualize weather data. It is not intended as a substitute for an official weather briefing obtained from a Flight Service Station. CheckWX.com does not meet the FAA requirements for an official pre-flight weather briefing. Therefore, it's important that pilots still call and obtain an official FSS pre-flight weather briefing.